Ferndale, WA (98248)

8:22 PM PST on February 19, 2017 (GMT -0800)
Sandy Point Shores | | Change Station
Active Advisory: Small Craft Advisory

Elev 8 ft 48.80 °N, 122.71 °W | Updated 3 seconds ago

Overcast
Overcast
46.3 °F
Feels Like 38 °F
N
21.4
Wind Variable Wind from SE
Gusts 27.6 mph

Today
High -- | Low -- °F
--% Chance of Precip.
Yesterday
High -- | Low -- °F
Precip. -- in
Pressure 29.54 in
Visibility 9.0 miles
Clouds Few 2500 ft
Mostly Cloudy 4400 ft
Overcast 7000 ft
Windchill 38 °F
Dew Point 43 °F
Humidity 88%
Rainfall 0.01 in
Snow Depth Not available.
7:10 AM 5:38 PM
Last Quarter, 37% visible
METAR KBLI 200353Z 15015G22KT 9SM -RA FEW025 BKN044 OVC070 08/05 A2952 RMK AO2 PK WND 14026/0340 RAB27 SLP003 P0000 T00780050
Pressure 29.54 in
Visibility 9.0 miles
Clouds Few 2500 ft
Mostly Cloudy 4400 ft
Overcast 7000 ft
Windchill 38 °F
Dew Point 43 °F
Humidity 88%
Rainfall 0.01 in
Snow Depth Not available.
7:10 AM 5:38 PM
Last Quarter, 37% visible
METAR KBLI 200353Z 15015G22KT 9SM -RA FEW025 BKN044 OVC070 08/05 A2952 RMK AO2 PK WND 14026/0340 RAB27 SLP003 P0000 T00780050

Get Your Daily Forecast Email!

Thanks for signing up!

Be on the lookout for a verification email in your inbox.

You'll start receiving the daily forecast at 8 AM.

×

10-Day Weather Forecast

Almanac

Astronomy

Feb. 19, 2017 Rise Set
Actual Time
Civil Twilight
Nautical Twilight
Astronomical Twilight
Moon
Length of Visible Light
Length of Day
Tomorrow will be .
, % of the Moon is Illuminated

Today's Extremes

State Highs State Lows

Community

WunderPhotos

Upload Photos

1,962,540 photos uploaded!

WunderBlog® & News

Nearby

Air Quality

  Air Quality AQ Index Pollutant
Not available.

Snow Depth

Station Depth Elevation

Earthquake Activity

City Distance Mag. Time & Date
Minimum magnitude displayed is 2.5.

Coastal Water Temperatures

Place Temperature

Stations

Nearby Weather Stations

Station Location Temp. Windchill Dew Point Humidity Wind Precip. Elev Updated Type
                   

Watches & Warnings

Small Craft Advisory
Issued: 7:02 PM PST Feb. 19, 2017 – National Weather Service

... Small Craft Advisory remains in effect until midnight PST
tonight...
... Gale Warning has expired...

* winds... south 20 to 30 knots... easing to 20 knots or less after
midnight.

* Waves/seas... wind waves 3 to 5 feet this evening.

Precautionary/preparedness actions...

A Small Craft Advisory means that wind speeds of 21 to 33 knots are
expected to produce hazardous wave conditions to small craft.
Inexperienced mariners... especially those operating smaller vessels
should avoid navigating in these conditions.